createdAt,value
2018-03-23T00:00:14.422Z,10.70
2018-03-23T00:01:15.871Z,10.07
2018-03-23T00:02:17.289Z,10.75
2018-03-23T00:03:18.712Z,9.23
2018-03-23T00:04:20.118Z,10.63
2018-03-23T00:05:21.513Z,10.10
2018-03-23T00:06:22.926Z,10.48
2018-03-23T00:07:24.330Z,10.70
2018-03-23T00:08:25.745Z,10.53
2018-03-23T00:09:27.149Z,9.03
2018-03-23T00:10:28.907Z,9.27
2018-03-23T00:11:30.323Z,10.68
2018-03-23T00:12:32.838Z,11.15
2018-03-23T00:13:34.246Z,10.32
2018-03-23T00:14:35.632Z,11.25
2018-03-23T00:15:37.058Z,11.17
2018-03-23T00:16:38.446Z,11.25
2018-03-23T00:17:40.956Z,10.33
2018-03-23T00:18:42.622Z,11.37
2018-03-23T00:19:44.010Z,11.40
2018-03-23T00:20:45.422Z,10.93
2018-03-23T00:21:46.818Z,10.50
2018-03-23T00:22:49.011Z,11.17
2018-03-23T00:23:50.442Z,10.65
2018-03-23T00:24:53.558Z,10.80
2018-03-23T00:25:54.970Z,9.07
2018-03-23T00:26:56.369Z,9.70
2018-03-23T00:27:57.760Z,10.77
2018-03-23T00:28:59.162Z,9.57
2018-03-23T00:30:00.554Z,10.23
2018-03-23T00:31:01.990Z,11.50
2018-03-23T00:32:03.394Z,10.93
2018-03-23T00:33:05.542Z,9.82
2018-03-23T00:34:06.927Z,11.40
2018-03-23T00:35:09.070Z,10.53
2018-03-23T00:36:10.498Z,11.50
2018-03-23T00:37:12.838Z,11.87
2018-03-23T00:38:15.010Z,10.23
2018-03-23T00:40:06.412Z,12.03
2018-03-23T00:41:08.550Z,11.73
2018-03-23T00:42:10.226Z,10.43
2018-03-23T00:43:11.838Z,11.12
2018-03-23T00:44:13.242Z,11.07
2018-03-23T00:45:14.650Z,12.30
2018-03-23T00:46:17.752Z,10.75
2018-03-23T00:47:19.426Z,11.67
2018-03-23T00:48:20.826Z,10.82
2018-03-23T00:49:22.266Z,11.40
2018-03-23T00:50:23.662Z,11.80
2018-03-23T00:51:25.098Z,10.98
2018-03-23T00:52:26.519Z,11.52
2018-03-23T00:53:27.962Z,11.17
2018-03-23T00:54:29.373Z,11.15
2018-03-23T00:55:30.793Z,10.33
2018-03-23T00:56:32.190Z,11.97
2018-03-23T00:57:33.870Z,10.40
2018-03-23T00:58:35.271Z,10.50
2018-03-23T00:59:36.679Z,10.73
2018-03-23T01:00:38.131Z,11.70
2018-03-23T01:01:39.542Z,11.90
2018-03-23T01:02:42.958Z,11.63
2018-03-23T01:03:44.396Z,10.63
2018-03-23T01:04:46.910Z,10.97
2018-03-23T01:06:58.467Z,11.25
2018-03-23T01:08:00.139Z,11.43
2018-03-23T01:09:01.558Z,11.70
2018-03-23T01:10:03.018Z,12.05
2018-03-23T01:11:04.438Z,10.80
2018-03-23T01:12:05.841Z,9.93
2018-03-23T01:13:07.630Z,10.50
2018-03-23T01:14:09.774Z,10.35
2018-03-23T01:15:12.884Z,12.27
2018-03-23T01:16:14.273Z,10.70
2018-03-23T01:17:45.230Z,12.03
2018-03-23T01:18:46.638Z,11.07
2018-03-23T01:19:48.031Z,12.13
2018-03-23T01:20:49.430Z,11.13
2018-03-23T01:21:52.541Z,12.43
2018-03-23T01:22:53.961Z,11.10
2018-03-23T01:23:55.362Z,12.60
2018-03-23T01:24:56.762Z,12.55
2018-03-23T01:25:58.165Z,11.23
2018-03-23T01:27:30.174Z,11.68
2018-03-23T01:28:31.590Z,11.60
2018-03-23T01:29:33.262Z,11.48
2018-03-23T01:30:34.673Z,12.75
2018-03-23T01:31:36.814Z,12.35
2018-03-23T01:32:38.230Z,12.18
2018-03-23T01:33:39.622Z,12.97
2018-03-23T01:34:43.054Z,11.10
2018-03-23T01:35:44.446Z,12.10
2018-03-23T01:36:47.354Z,12.10
2018-03-23T01:37:48.754Z,12.75
2018-03-23T01:39:41.993Z,12.27
2018-03-23T01:40:43.709Z,11.88
2018-03-23T01:41:45.142Z,12.35
2018-03-23T01:42:46.554Z,10.93
2018-03-23T01:44:22.889Z,12.50
2018-03-23T01:45:24.295Z,13.52
2018-03-23T01:46:27.229Z,13.73
2018-03-23T01:47:28.601Z,13.18
2018-03-23T01:48:30.007Z,13.10
2018-03-23T01:49:31.410Z,12.35
2018-03-23T01:50:32.806Z,12.83
2018-03-23T01:52:25.234Z,13.68
2018-03-23T01:53:42.690Z,13.00
2018-03-23T01:54:44.838Z,12.53
2018-03-23T01:55:47.961Z,11.53
2018-03-23T01:56:51.066Z,12.45
2018-03-23T01:57:53.485Z,12.80
2018-03-23T01:58:54.890Z,12.57
2018-03-23T01:59:57.076Z,12.90
2018-03-23T02:00:58.874Z,13.95
2018-03-23T02:02:00.305Z,13.60
2018-03-23T02:03:01.743Z,12.40
2018-03-23T02:04:42.906Z,12.95
2018-03-23T02:05:44.302Z,12.05
2018-03-23T02:06:45.706Z,13.23
2018-03-23T02:07:47.108Z,13.62
2018-03-23T02:08:48.542Z,13.90
2018-03-23T02:09:50.689Z,13.03
2018-03-23T02:10:52.100Z,13.17
2018-03-23T02:11:53.510Z,12.97
2018-03-23T02:12:54.910Z,12.85
2018-03-23T02:13:56.357Z,14.20
2018-03-23T02:14:58.494Z,14.95
2018-03-23T02:16:00.666Z,13.63
2018-03-23T02:17:02.070Z,13.80
2018-03-23T02:19:52.004Z,13.15
2018-03-23T02:20:53.426Z,14.60
2018-03-23T02:21:54.834Z,14.40
2018-03-23T02:22:56.322Z,13.85
2018-03-23T02:23:57.726Z,14.35
2018-03-23T02:24:59.513Z,15.03
2018-03-23T02:26:02.049Z,12.85
2018-03-23T02:27:04.219Z,15.20
2018-03-23T02:28:05.605Z,14.52
2018-03-23T02:29:06.994Z,14.23
2018-03-23T02:30:08.715Z,14.63
2018-03-23T02:31:10.150Z,14.73
2018-03-23T02:32:12.870Z,14.23
2018-03-23T02:33:15.006Z,14.97
2018-03-23T02:34:16.407Z,14.73
2018-03-23T18:28:58.306Z,11.25
2018-03-23T18:30:01.411Z,11.48
2018-03-23T18:31:02.869Z,12.18
2018-03-23T18:32:04.351Z,11.55
2018-03-23T18:33:05.774Z,12.25
2018-03-23T18:34:08.922Z,12.02
2018-03-23T18:35:12.111Z,12.00
2018-03-23T18:36:14.284Z,13.05
2018-03-23T18:37:17.405Z,11.90
2018-03-23T18:38:20.475Z,11.68
2018-03-23T18:39:23.625Z,12.37
2018-03-23T18:40:26.749Z,12.65
2018-03-23T18:41:29.863Z,12.10
2018-03-23T18:42:31.246Z,12.30
2018-03-23T18:43:32.682Z,13.13
2018-03-23T18:44:35.503Z,15.60
2018-03-23T18:45:38.613Z,40.10
2018-03-23T18:46:40.038Z,41.50
2018-03-23T18:47:41.713Z,35.33
2018-03-23T18:48:43.172Z,35.22
2018-03-23T18:49:44.558Z,36.30
2018-03-23T18:50:47.675Z,40.90
2018-03-23T18:51:50.811Z,39.17
2018-03-23T18:52:53.394Z,37.20
2018-03-23T18:55:20.802Z,28.80
2018-03-23T18:56:23.885Z,29.92
2018-03-23T18:57:27.071Z,27.57
2018-03-23T18:58:30.171Z,28.07
2018-03-23T18:59:34.639Z,30.07
2018-03-23T19:00:36.138Z,28.55
2018-03-23T19:01:38.944Z,21.42
2018-03-23T19:02:42.062Z,19.20
2018-03-23T19:03:43.469Z,19.40
2018-03-23T19:04:46.585Z,12.95
2018-03-23T19:05:49.769Z,11.03
2018-03-23T19:06:53.268Z,10.88
2018-03-23T19:07:57.305Z,12.63
2018-03-23T19:08:58.809Z,11.57
2018-03-23T19:10:01.939Z,10.68
2018-03-23T19:11:05.264Z,12.03
2018-03-23T19:12:06.806Z,12.53
2018-03-23T19:13:08.237Z,12.40
2018-03-23T19:14:12.089Z,14.45
2018-03-23T19:15:13.509Z,15.38
2018-03-23T19:16:51.111Z,14.30
2018-03-23T19:17:52.605Z,11.87
2018-03-23T19:19:29.204Z,12.80
2018-03-23T19:20:32.089Z,13.87
2018-03-23T19:21:33.562Z,13.00
2018-03-23T19:22:34.975Z,12.37
2018-03-23T19:23:37.697Z,12.53
2018-03-23T19:24:39.332Z,11.90
2018-03-23T19:25:42.437Z,12.83
2018-03-23T19:26:45.569Z,12.90
2018-03-23T19:27:47.847Z,12.67
2018-03-23T19:28:50.236Z,12.57
2018-03-23T19:31:32.623Z,11.40
2018-03-23T19:34:19.282Z,13.62
2018-03-23T19:35:20.676Z,14.32
2018-03-23T19:36:23.814Z,13.73
2018-03-23T19:37:25.213Z,14.57
2018-03-23T19:39:24.355Z,13.00
2018-03-23T19:40:27.457Z,13.37
2018-03-23T19:41:30.655Z,13.10
2018-03-23T19:42:34.278Z,13.80
2018-03-23T19:43:35.688Z,13.03
2018-03-23T19:44:37.377Z,11.03
2018-03-23T19:45:41.498Z,13.02
2018-03-23T19:46:42.922Z,14.43
2018-03-23T19:47:46.045Z,13.40
2018-03-23T19:48:47.445Z,12.57
2018-03-23T19:49:50.564Z,13.73
2018-03-23T19:50:51.974Z,13.23
2018-03-23T19:51:53.387Z,13.07
2018-03-23T19:52:54.789Z,12.47
2018-03-23T19:53:56.189Z,15.13
2018-03-23T19:55:01.061Z,14.83
2018-03-23T19:56:02.489Z,14.55
2018-03-23T19:57:07.572Z,13.77
2018-03-23T19:58:11.393Z,13.15
2018-03-23T19:59:14.517Z,14.63
2018-03-23T20:00:15.989Z,14.43
2018-03-23T20:01:19.007Z,14.43
2018-03-23T20:03:18.258Z,13.18
2018-03-23T20:04:22.138Z,14.03
2018-03-23T20:05:24.754Z,14.13
2018-03-23T20:06:26.670Z,14.07
2018-03-23T20:07:28.102Z,13.10
2018-03-23T20:08:31.221Z,14.80
2018-03-23T20:09:32.622Z,13.40
2018-03-23T20:10:34.100Z,13.50
2018-03-23T20:11:36.248Z,13.25
2018-03-23T20:12:38.873Z,13.77
2018-03-23T20:13:48.191Z,13.70
2018-03-23T20:14:49.586Z,13.23
2018-03-23T20:15:51.036Z,12.18
2018-03-23T20:16:52.440Z,12.10
2018-03-23T20:17:59.937Z,11.97
2018-03-23T20:19:01.347Z,12.57
2018-03-23T20:20:56.387Z,12.20
2018-03-23T20:21:58.760Z,12.20
2018-03-23T20:23:00.928Z,12.50
2018-03-23T20:24:08.626Z,13.67
2018-03-23T20:25:11.433Z,14.13
2018-03-23T20:26:12.925Z,14.17
2018-03-23T20:27:22.180Z,13.93
2018-03-23T20:28:31.546Z,13.18
2018-03-23T20:29:33.942Z,14.03
2018-03-23T20:30:35.403Z,13.47
2018-03-23T20:31:43.086Z,14.00
2018-03-23T20:32:44.544Z,13.70
2018-03-23T20:34:49.184Z,12.90
2018-03-23T20:35:50.634Z,14.03
2018-03-23T20:36:52.077Z,13.43
2018-03-23T20:37:53.710Z,13.47
2018-03-23T20:38:56.252Z,13.67
2018-03-23T20:39:58.798Z,14.05
2018-03-23T20:41:00.205Z,13.37
2018-03-23T20:42:02.390Z,13.60
2018-03-23T20:43:04.562Z,13.33
2018-03-23T20:44:07.660Z,13.00
2018-03-23T20:45:09.065Z,12.83
2018-03-23T20:46:10.544Z,12.47
2018-03-23T20:47:41.933Z,12.93
2018-03-23T20:48:43.581Z,12.00
2018-03-23T20:49:46.118Z,11.53
2018-03-23T20:50:49.217Z,12.53
2018-03-23T20:51:50.611Z,11.93
2018-03-23T20:52:53.350Z,12.32
2018-03-23T20:53:56.486Z,12.30
2018-03-23T20:54:59.369Z,13.17
2018-03-23T20:56:01.498Z,12.17
2018-03-23T20:57:02.894Z,12.20
2018-03-23T20:58:06.030Z,11.93
2018-03-23T20:59:09.157Z,12.70
2018-03-23T21:00:10.589Z,11.82
2018-03-23T21:10:58.514Z,11.48
2018-03-23T21:12:01.614Z,12.30
2018-03-23T21:13:03.757Z,12.50
2018-03-23T21:14:05.569Z,11.83
2018-03-23T21:15:07.036Z,12.18
2018-03-23T21:16:08.562Z,11.50
2018-03-23T21:17:11.807Z,11.77
2018-03-23T21:18:13.205Z,13.05
2018-03-23T21:19:15.793Z,12.80
2018-03-23T21:20:17.212Z,13.27
2018-03-23T21:21:18.632Z,13.40
2018-03-23T21:22:20.784Z,12.77
2018-03-23T21:23:23.732Z,12.10
2018-03-23T21:24:25.204Z,13.00
2018-03-23T21:25:26.710Z,12.75
2018-03-23T21:26:29.618Z,13.27
2018-03-23T21:27:32.716Z,12.83
2018-03-23T21:28:35.814Z,12.80
2018-03-23T21:29:38.712Z,12.73
2018-03-23T21:30:40.119Z,13.27
2018-03-23T21:31:41.878Z,13.17
2018-03-23T21:32:43.293Z,13.40
2018-03-23T21:33:44.690Z,13.47
2018-03-23T21:34:46.070Z,13.13
2018-03-23T21:35:48.577Z,13.07
2018-03-23T21:36:50.753Z,13.13
2018-03-23T21:37:52.159Z,13.30
2018-03-23T21:38:53.554Z,13.43
2018-03-23T21:39:56.674Z,13.80
2018-03-23T21:40:59.772Z,13.40
2018-03-23T21:42:01.931Z,13.47
2018-03-23T21:43:04.069Z,13.60
2018-03-23T21:44:05.483Z,13.18
2018-03-23T21:45:07.602Z,12.20
2018-03-23T21:46:09.408Z,12.23
2018-03-23T21:47:12.489Z,12.30
2018-03-23T21:48:14.634Z,12.13
2018-03-23T21:49:16.048Z,12.70
2018-03-23T21:50:17.548Z,13.20
2018-03-23T21:51:18.990Z,11.70
2018-03-23T21:52:20.418Z,12.13
2018-03-23T21:53:22.956Z,13.43
2018-03-23T21:54:24.344Z,13.10
2018-03-23T21:55:25.754Z,13.47
2018-03-23T21:56:27.158Z,13.15
2018-03-23T21:57:30.403Z,12.90
2018-03-23T21:58:31.801Z,13.07
2018-03-23T21:59:33.186Z,12.70
2018-03-23T22:00:36.288Z,12.47
2018-03-23T22:01:37.693Z,12.13
2018-03-23T22:02:39.114Z,13.27
2018-03-23T22:03:42.010Z,13.00
2018-03-23T22:04:43.410Z,13.03
2018-03-23T22:05:46.790Z,13.10
2018-03-23T22:06:49.966Z,14.27
2018-03-23T22:07:51.386Z,12.87
2018-03-23T22:08:52.802Z,13.17
2018-03-23T22:09:54.273Z,12.87
2018-03-23T22:10:55.670Z,13.83
2018-03-23T22:11:59.510Z,12.60
2018-03-23T22:13:03.535Z,12.37
2018-03-23T22:14:05.106Z,12.67
2018-03-23T22:15:06.545Z,14.07
2018-03-23T22:16:07.942Z,14.43
2018-03-23T22:17:11.138Z,14.33
2018-03-23T22:18:12.576Z,14.10
2018-03-23T22:19:13.981Z,15.33
2018-03-23T22:20:15.387Z,14.63
2018-03-23T22:21:16.794Z,14.93
2018-03-23T22:22:18.186Z,15.33
2018-03-23T22:23:20.690Z,16.00
2018-03-23T22:24:22.153Z,15.83
2018-03-23T22:25:26.896Z,16.80
2018-03-23T22:26:28.430Z,15.70
2018-03-23T22:27:30.942Z,16.13
2018-03-23T22:28:34.058Z,14.97
2018-03-23T22:29:35.442Z,15.50
2018-03-23T22:30:36.830Z,15.87
2018-03-23T22:31:39.913Z,14.80
2018-03-23T22:32:41.871Z,15.87
2018-03-23T22:33:43.300Z,15.17
2018-03-23T22:34:45.544Z,15.67
2018-03-23T22:35:51.274Z,15.43
2018-03-23T22:36:52.782Z,15.13
2018-03-23T22:37:54.150Z,14.70
2018-03-23T22:38:55.546Z,15.17
2018-03-23T22:39:58.666Z,15.53
2018-03-23T22:41:00.084Z,14.70
2018-03-23T22:42:02.268Z,16.03
2018-03-23T22:43:04.390Z,16.03
2018-03-23T22:44:05.818Z,15.97
2018-03-23T22:45:08.346Z,16.45
2018-03-23T22:46:11.410Z,15.97
2018-03-23T22:47:13.572Z,16.40
2018-03-23T22:48:16.434Z,16.50
2018-03-23T22:49:17.910Z,15.45
2018-03-23T22:50:22.112Z,16.58
2018-03-23T22:51:23.486Z,15.77
2018-03-23T22:52:26.587Z,14.98
2018-03-23T22:53:31.992Z,16.00
2018-03-23T22:54:34.277Z,15.60
2018-03-23T22:55:41.910Z,15.30
2018-03-23T22:56:44.174Z,15.87
2018-03-23T22:57:49.382Z,16.03
2018-03-23T22:58:51.344Z,16.00
2018-03-23T22:59:52.767Z,16.10
2018-03-23T23:00:54.293Z,16.07
2018-03-23T23:01:57.408Z,15.15
2018-03-23T23:02:59.540Z,15.53
2018-03-23T23:04:00.951Z,16.23
2018-03-23T23:05:02.384Z,15.50
2018-03-23T23:06:03.782Z,15.50
2018-03-23T23:07:05.188Z,16.00
2018-03-23T23:08:07.318Z,17.83
2018-03-23T23:09:08.726Z,15.30
2018-03-23T23:10:10.445Z,15.57
2018-03-23T23:11:11.866Z,16.40
2018-03-23T23:12:14.808Z,15.80
2018-03-23T23:13:16.266Z,15.97
2018-03-23T23:14:17.666Z,15.73
2018-03-23T23:15:19.086Z,16.05
2018-03-23T23:16:20.470Z,15.67
2018-03-23T23:17:22.626Z,16.67
2018-03-23T23:18:25.752Z,16.02
2018-03-23T23:19:27.182Z,15.88
2018-03-23T23:20:31.361Z,15.88
2018-03-23T23:21:33.738Z,15.47
2018-03-23T23:22:35.158Z,15.27
2018-03-23T23:23:37.671Z,16.23
2018-03-23T23:24:39.063Z,16.03
2018-03-23T23:25:40.471Z,16.80
2018-03-23T23:26:44.120Z,15.48
2018-03-23T23:27:45.683Z,16.63
2018-03-23T23:28:47.089Z,16.52
2018-03-23T23:29:49.240Z,15.02
2018-03-23T23:30:50.646Z,15.65
2018-03-23T23:31:52.057Z,16.27
2018-03-23T23:32:56.550Z,15.60
2018-03-23T23:33:58.910Z,15.55
2018-03-23T23:35:00.325Z,16.55
2018-03-23T23:36:03.438Z,15.97
2018-03-23T23:37:06.538Z,14.82
2018-03-23T23:38:08.673Z,15.10
2018-03-23T23:39:10.078Z,14.90
2018-03-23T23:40:11.722Z,15.52
2018-03-23T23:41:13.134Z,15.95
2018-03-23T23:42:14.526Z,16.35
2018-03-23T23:43:15.924Z,14.82
2018-03-23T23:44:18.054Z,15.70
2018-03-23T23:45:19.454Z,15.13
2018-03-23T23:46:21.122Z,15.47
2018-03-23T23:47:22.510Z,16.12
2018-03-23T23:48:23.902Z,15.80
2018-03-23T23:49:25.295Z,15.27
2018-03-23T23:50:26.698Z,15.70
2018-03-23T23:51:28.936Z,15.05
2018-03-23T23:52:31.070Z,15.10
2018-03-23T23:53:33.298Z,15.20
2018-03-23T23:54:34.739Z,16.27
2018-03-23T23:55:36.134Z,16.62
2018-03-23T23:56:37.542Z,16.08
2018-03-23T23:57:38.924Z,15.70
2018-03-23T23:58:40.347Z,15.53
2018-03-23T23:59:42.370Z,16.03
